QXE2443 KPSP-KSEA
Flight info
| Callsign | QXE2443 |
|---|---|
| Flight time | N/A |
| Altitude | 32000 |
| Route | YUCCA1 PMD LANDO TILTS LKV HAWKZ8 |
| Aircraft | E75L/M-SDE3GILORVW/S |
Departure
| Time | 2026-05-08 04:44 |
|---|---|
| Airport | Palm Springs International Airport (KPSP) |
Arrival
| Time | N/A |
|---|---|
| Airport | Seattle–Tacoma International Airport (KSEA) |
| Time | Latitude | Longitude | Altitude | Speed | Heading |
|---|---|---|---|---|---|
| 2026-05-08 04:33 | 33.82370 | -116.50622 | 420 ft | 0 kts | 231° |
| 2026-05-08 04:37 | 33.82370 | -116.50621 | 420 ft | 2 kts | 231° |
| 2026-05-08 04:37 | 33.82387 | -116.50598 | 416 ft | 4 kts | 224° |
| 2026-05-08 04:37 | 33.82409 | -116.50579 | 409 ft | 4 kts | 201° |
| 2026-05-08 04:37 | 33.82429 | -116.50580 | 421 ft | 2 kts | 143° |
| 2026-05-08 04:38 | 33.82430 | -116.50580 | 421 ft | 2 kts | 143° |
| 2026-05-08 04:40 | 33.82418 | -116.50570 | 413 ft | 5 kts | 143° |
| 2026-05-08 04:40 | 33.82375 | -116.50532 | 411 ft | 10 kts | 143° |
| 2026-05-08 04:40 | 33.82304 | -116.50467 | 412 ft | 13 kts | 135° |
| 2026-05-08 04:40 | 33.82306 | -116.50407 | 413 ft | 6 kts | 69° |
| 2026-05-08 04:41 | 33.82294 | -116.50371 | 412 ft | 4 kts | 147° |
| 2026-05-08 04:41 | 33.82269 | -116.50347 | 412 ft | 6 kts | 141° |
| 2026-05-08 04:41 | 33.82225 | -116.50308 | 412 ft | 8 kts | 147° |
| 2026-05-08 04:41 | 33.82168 | -116.50259 | 411 ft | 12 kts | 144° |
| 2026-05-08 04:42 | 33.82088 | -116.50188 | 404 ft | 16 kts | 144° |
| 2026-05-08 04:42 | 33.82000 | -116.50111 | 408 ft | 17 kts | 144° |
| 2026-05-08 04:42 | 33.81900 | -116.50022 | 401 ft | 18 kts | 143° |
| 2026-05-08 04:42 | 33.81837 | -116.49934 | 401 ft | 11 kts | 86° |
| 2026-05-08 04:43 | 33.81860 | -116.49848 | 400 ft | 12 kts | 67° |
| 2026-05-08 04:43 | 33.81906 | -116.49819 | 399 ft | 7 kts | 334° |
| 2026-05-08 04:43 | 33.81935 | -116.49846 | 400 ft | 5 kts | 322° |
| 2026-05-08 04:43 | 33.82009 | -116.49914 | 403 ft | 42 kts | 323° |
| 2026-05-08 04:44 | 33.82468 | -116.50320 | 412 ft | 120 kts | 323° |
| 2026-05-08 04:44 | 33.83294 | -116.51076 | 623 ft | 172 kts | 321° |
| 2026-05-08 04:44 | 33.84357 | -116.52070 | 1117 ft | 215 kts | 322° |
| 2026-05-08 04:44 | 33.85641 | -116.53180 | 1923 ft | 231 kts | 324° |
| 2026-05-08 04:45 | 33.86987 | -116.54287 | 3038 ft | 239 kts | 323° |
| 2026-05-08 04:45 | 33.88421 | -116.55487 | 3721 ft | 269 kts | 323° |
| 2026-05-08 04:45 | 33.90202 | -116.56728 | 3849 ft | 329 kts | 338° |
| 2026-05-08 04:45 | 33.92338 | -116.57173 | 4451 ft | 303 kts | 354° |
| 2026-05-08 04:46 | 33.94113 | -116.57303 | 4372 ft | 288 kts | 354° |